createdAt,value
2023-03-08T00:01:25.680Z,96245.38
2023-03-08T00:03:58.643Z,96261.63
2023-03-08T00:06:27.647Z,96260.22
2023-03-08T00:09:01.134Z,96256.22
2023-03-08T00:11:29.892Z,96262.78
2023-03-08T00:13:59.026Z,96266.44
2023-03-08T00:16:26.403Z,96271.75
2023-03-08T00:18:54.032Z,96276.47
2023-03-08T00:21:21.864Z,96257.25
2023-03-08T00:23:56.784Z,96268.22
2023-03-08T00:26:24.095Z,96268.22
2023-03-08T00:28:52.905Z,96262.78
2023-03-08T00:31:20.324Z,96259.75
2023-03-08T00:33:48.092Z,96262.78
2023-03-08T00:36:18.890Z,96265.41
2023-03-08T00:38:48.432Z,96280.59
2023-03-08T00:41:16.129Z,96255.16
2023-03-08T00:43:44.101Z,96263.97
2023-03-08T00:46:12.455Z,96264.06
2023-03-08T00:48:41.209Z,96263.84
2023-03-08T00:51:12.193Z,96263.75
2023-03-08T00:53:39.840Z,96256.66
2023-03-08T00:56:07.697Z,96263.16
2023-03-08T00:58:38.630Z,96263.38
2023-03-08T01:01:08.090Z,96268.56
2023-03-08T01:03:35.897Z,96262.13
2023-03-08T01:06:09.594Z,96271.06
2023-03-08T01:08:37.410Z,96271.50
2023-03-08T01:11:05.353Z,96255.97
2023-03-08T01:13:36.306Z,96269.38
2023-03-08T01:16:03.767Z,96263.97
2023-03-08T01:18:32.669Z,96275.16
2023-03-08T01:21:03.699Z,96258.94
2023-03-08T01:23:32.665Z,96260.69
2023-03-08T01:26:07.032Z,96274.44
2023-03-08T01:28:35.688Z,96260.94
2023-03-08T01:31:20.910Z,96269.19
2023-03-08T01:33:49.616Z,96280.94
2023-03-08T01:36:21.286Z,96266.09
2023-03-08T01:38:49.125Z,96243.78
2023-03-08T01:41:24.989Z,96267.06
2023-03-08T01:43:54.046Z,96252.94
2023-03-08T01:46:34.927Z,96268.13
2023-03-08T01:49:33.462Z,96254.84
2023-03-08T01:52:08.509Z,96266.47
2023-03-08T01:54:42.483Z,96247.19
2023-03-08T01:57:22.289Z,96254.94
2023-03-08T01:59:53.760Z,96237.06
2023-03-08T02:02:28.576Z,96254.84
2023-03-08T02:04:56.181Z,96251.31
2023-03-08T02:07:23.520Z,96239.78
2023-03-08T02:09:51.198Z,96236.50
2023-03-08T02:12:19.944Z,96252.38
2023-03-08T02:14:48.197Z,96247.56
2023-03-08T02:17:15.752Z,96249.19
2023-03-08T02:19:55.318Z,96268.00
2023-03-08T02:22:23.236Z,96251.09
2023-03-08T02:24:50.893Z,96253.69
2023-03-08T02:27:24.994Z,96252.00
2023-03-08T02:29:52.900Z,96269.28
2023-03-08T02:32:20.461Z,96251.19
2023-03-08T02:34:48.025Z,96255.53
2023-03-08T02:37:15.272Z,96266.72
2023-03-08T02:39:42.801Z,96261.09
2023-03-08T02:42:10.334Z,96282.59
2023-03-08T02:44:37.881Z,96274.84
2023-03-08T02:47:05.443Z,96278.81
2023-03-08T02:49:33.050Z,96290.13
2023-03-08T02:52:00.357Z,96284.56
2023-03-08T02:54:28.071Z,96296.69
2023-03-08T02:56:55.327Z,96295.41
2023-03-08T02:59:24.035Z,96289.16
2023-03-08T03:01:51.391Z,96297.88
2023-03-08T03:04:19.362Z,96298.19
2023-03-08T03:06:46.622Z,96301.59
2023-03-08T03:09:14.280Z,96310.31
2023-03-08T03:11:41.950Z,96315.47
2023-03-08T03:14:09.457Z,96305.63
2023-03-08T03:16:37.625Z,96312.31
2023-03-08T03:19:05.246Z,96338.31
2023-03-08T03:21:33.128Z,96330.91
2023-03-08T03:24:00.804Z,96335.94
2023-03-08T03:26:28.782Z,96331.81
2023-03-08T03:28:58.057Z,96351.72
2023-03-08T03:31:26.744Z,96336.69
2023-03-08T03:33:54.817Z,96338.19
2023-03-08T03:36:23.327Z,96345.63
2023-03-08T03:38:51.753Z,96353.25
2023-03-08T03:41:23.113Z,96343.94
2023-03-08T03:43:51.331Z,96352.66
2023-03-08T03:46:21.359Z,96365.13
2023-03-08T03:48:49.114Z,96365.25
2023-03-08T03:51:20.564Z,96374.16
2023-03-08T03:53:49.202Z,96373.56
2023-03-08T03:56:20.454Z,96369.59
2023-03-08T03:58:48.999Z,96379.34
2023-03-08T04:01:31.561Z,96379.00
2023-03-08T04:03:59.935Z,96386.13
2023-03-08T04:06:30.445Z,96386.47
2023-03-08T04:09:08.462Z,96379.31
2023-03-08T04:11:39.601Z,96389.78
2023-03-08T04:14:08.097Z,96397.69
2023-03-08T04:16:38.636Z,96396.03
2023-03-08T04:19:11.674Z,96396.34
2023-03-08T04:21:39.523Z,96386.00
2023-03-08T04:24:07.604Z,96383.41
2023-03-08T04:26:36.343Z,96384.22
2023-03-08T04:29:06.378Z,96378.16
2023-03-08T04:31:35.626Z,96379.00
2023-03-08T04:34:05.469Z,96393.31
2023-03-08T04:36:32.849Z,96383.41
2023-03-08T04:39:00.446Z,96386.84
2023-03-08T04:41:27.750Z,96416.88
2023-03-08T04:43:57.935Z,96401.03
2023-03-08T04:46:28.613Z,96378.34
2023-03-08T04:48:56.356Z,96389.78
2023-03-08T04:51:26.585Z,96416.97
2023-03-08T04:53:54.252Z,96409.25
2023-03-08T04:56:21.924Z,96407.38
2023-03-08T04:58:49.772Z,96411.41
2023-03-08T05:01:20.784Z,96425.97
2023-03-08T05:03:51.603Z,96411.88
2023-03-08T05:06:22.046Z,96414.44
2023-03-08T05:08:49.652Z,96405.34
2023-03-08T05:11:29.554Z,96411.38
2023-03-08T05:13:59.608Z,96416.63
2023-03-08T05:16:27.694Z,96414.69
2023-03-08T05:18:55.250Z,96415.22
2023-03-08T05:21:24.698Z,96422.63
2023-03-08T05:23:52.283Z,96400.28
2023-03-08T05:26:19.738Z,96412.06
2023-03-08T05:28:47.285Z,96424.28
2023-03-08T05:31:18.213Z,96414.66
2023-03-08T05:33:50.965Z,96433.69
2023-03-08T05:36:19.686Z,96415.28
2023-03-08T05:38:48.190Z,96432.63
2023-03-08T05:41:17.057Z,96430.88
2023-03-08T05:43:44.879Z,96445.41
2023-03-08T05:46:18.879Z,96435.19
2023-03-08T05:48:46.912Z,96445.88
2023-03-08T05:51:17.744Z,96431.94
2023-03-08T05:53:45.874Z,96440.66
2023-03-08T05:56:22.583Z,96427.91
2023-03-08T05:58:51.812Z,96425.56
2023-03-08T06:01:25.956Z,96433.25
2023-03-08T06:03:57.423Z,96420.16
2023-03-08T06:06:27.137Z,96426.84
2023-03-08T06:08:56.386Z,96452.59
2023-03-08T06:11:24.410Z,96465.22
2023-03-08T06:13:52.118Z,96473.78
2023-03-08T06:16:19.494Z,96482.78
2023-03-08T06:18:47.248Z,96485.78
2023-03-08T06:21:17.889Z,96499.66
2023-03-08T06:23:46.841Z,96503.84
2023-03-08T06:26:15.484Z,96512.66
2023-03-08T06:28:43.798Z,96517.03
2023-03-08T06:31:15.925Z,96510.25
2023-03-08T06:33:43.777Z,96505.06
2023-03-08T06:36:18.071Z,96522.41
2023-03-08T06:38:47.047Z,96526.94
2023-03-08T06:41:17.205Z,96503.38
2023-03-08T06:43:44.929Z,96479.75
2023-03-08T06:46:17.214Z,96508.34
2023-03-08T06:48:47.829Z,96519.81
2023-03-08T06:51:15.536Z,96531.13
2023-03-08T06:53:43.158Z,96517.59
2023-03-08T06:56:14.678Z,96527.69
2023-03-08T06:58:43.123Z,96539.38
2023-03-08T07:01:12.967Z,96536.31
2023-03-08T07:03:41.143Z,96526.28
2023-03-08T07:06:10.481Z,96523.09
2023-03-08T07:08:41.996Z,96529.66
2023-03-08T07:11:10.024Z,96531.44
2023-03-08T07:13:38.585Z,96535.94
2023-03-08T07:16:11.252Z,96545.00
2023-03-08T07:18:39.890Z,96544.56
2023-03-08T07:21:10.325Z,96542.38
2023-03-08T07:23:37.914Z,96558.50
2023-03-08T07:26:09.587Z,96526.63
2023-03-08T07:28:37.449Z,96542.25
2023-03-08T07:31:05.689Z,96530.00
2023-03-08T07:33:33.934Z,96567.00
2023-03-08T07:36:02.540Z,96559.06
2023-03-08T07:38:30.448Z,96559.59
2023-03-08T07:40:57.813Z,96585.34
2023-03-08T07:43:25.580Z,96557.91
2023-03-08T07:45:52.932Z,96598.59
2023-03-08T07:48:20.553Z,96585.06
2023-03-08T07:50:47.808Z,96565.16
2023-03-08T07:53:15.835Z,96575.19
2023-03-08T07:55:43.100Z,96582.59
2023-03-08T07:58:10.743Z,96575.34
2023-03-08T08:00:38.036Z,96583.63
2023-03-08T08:03:05.654Z,96581.34
2023-03-08T08:05:36.649Z,96578.88
2023-03-08T08:08:04.754Z,96562.72
2023-03-08T08:10:32.062Z,96553.66
2023-03-08T08:12:59.691Z,96542.16
2023-03-08T08:15:27.365Z,96550.41
2023-03-08T08:17:54.906Z,96539.00
2023-03-08T08:20:22.522Z,96544.94
2023-03-08T08:22:53.305Z,96547.69
2023-03-08T08:25:21.707Z,96552.06
2023-03-08T08:27:51.076Z,96571.22
2023-03-08T08:30:18.623Z,96574.75
2023-03-08T08:32:46.225Z,96559.34
2023-03-08T08:35:13.864Z,96557.91
2023-03-08T08:37:41.444Z,96554.69
2023-03-08T08:40:10.701Z,96555.91
2023-03-08T08:42:39.369Z,96548.50
2023-03-08T08:45:07.502Z,96540.88
2023-03-08T08:47:35.205Z,96562.59
2023-03-08T08:50:02.675Z,96563.94
2023-03-08T08:52:30.718Z,96564.06
2023-03-08T08:54:58.211Z,96549.41
2023-03-08T08:57:25.862Z,96557.53
2023-03-08T08:59:53.214Z,96553.56
2023-03-08T09:02:21.024Z,96566.41
2023-03-08T09:04:48.924Z,96548.00
2023-03-08T09:07:16.704Z,96567.47
2023-03-08T09:09:44.104Z,96563.97
2023-03-08T09:12:11.849Z,96563.47
2023-03-08T09:14:39.150Z,96563.53
2023-03-08T09:17:07.477Z,96565.13
2023-03-08T09:19:36.660Z,96563.19
2023-03-08T09:22:04.892Z,96557.91
2023-03-08T09:24:33.958Z,96548.34
2023-03-08T09:27:01.703Z,96556.59
2023-03-08T09:29:29.007Z,96555.66
2023-03-08T09:31:58.531Z,96551.66
2023-03-08T09:34:26.787Z,96558.41
2023-03-08T09:36:54.756Z,96563.59
2023-03-08T09:39:23.350Z,96560.72
2023-03-08T09:41:58.763Z,96557.84
2023-03-08T09:45:02.535Z,96568.16
2023-03-08T09:47:46.726Z,96573.59
2023-03-08T09:50:14.073Z,96557.56
2023-03-08T09:53:12.515Z,96558.09
2023-03-08T09:55:49.204Z,96560.59
2023-03-08T09:58:43.567Z,96556.38
2023-03-08T10:01:42.296Z,96543.19
2023-03-08T10:04:36.152Z,96548.88
2023-03-08T10:07:31.900Z,96553.72
2023-03-08T10:10:48.129Z,96541.19
2023-03-08T10:13:37.764Z,96542.59
2023-03-08T10:16:25.072Z,96540.69
2023-03-08T10:19:11.877Z,96551.31
2023-03-08T10:21:44.471Z,96538.28
2023-03-08T10:24:42.748Z,96524.09
2023-03-08T10:27:23.871Z,96527.91
2023-03-08T10:29:59.474Z,96512.03
2023-03-08T10:32:36.177Z,96513.25
2023-03-08T10:35:06.383Z,96508.63
2023-03-08T10:37:34.558Z,96508.81
2023-03-08T10:40:08.325Z,96511.66
2023-03-08T10:42:36.931Z,96498.53
2023-03-08T10:45:22.489Z,96508.50
2023-03-08T10:48:03.491Z,96501.91
2023-03-08T10:50:37.571Z,96501.88
2023-03-08T10:53:19.782Z,96509.13
2023-03-08T10:55:51.353Z,96510.75
2023-03-08T10:58:39.853Z,96503.00
2023-03-08T11:01:28.666Z,96487.38
2023-03-08T11:04:18.681Z,96489.84
2023-03-08T11:06:46.333Z,96493.16
2023-03-08T11:09:36.992Z,96485.25
2023-03-08T11:12:04.791Z,96489.44
2023-03-08T11:14:32.661Z,96481.13
2023-03-08T11:17:39.421Z,96478.75
2023-03-08T11:20:25.058Z,96473.91
2023-03-08T11:23:35.585Z,96468.72
2023-03-08T11:26:44.948Z,96468.13
2023-03-08T11:29:35.325Z,96468.69
2023-03-08T11:33:15.096Z,96468.44
2023-03-08T11:36:14.205Z,96456.81
2023-03-08T11:38:43.419Z,96459.09
2023-03-08T11:41:39.825Z,96453.56
2023-03-08T11:44:19.255Z,96453.75
2023-03-08T11:46:58.730Z,96460.19
2023-03-08T11:49:47.002Z,96455.66
2023-03-08T11:52:59.729Z,96452.22
2023-03-08T11:55:55.613Z,96461.31
2023-03-08T11:58:40.410Z,96448.94
2023-03-08T12:01:39.009Z,96439.06
2023-03-08T12:04:22.792Z,96438.50
2023-03-08T12:06:54.996Z,96421.22
2023-03-08T12:09:55.442Z,96420.19
2023-03-08T12:12:44.376Z,96403.38
2023-03-08T12:15:38.466Z,96400.97
2023-03-08T12:18:45.969Z,96399.81
2023-03-08T12:21:49.731Z,96410.78
2023-03-08T12:24:37.145Z,96402.50
2023-03-08T12:27:13.769Z,96412.53
2023-03-08T12:30:35.251Z,96391.69
2023-03-08T12:33:06.641Z,96405.00
2023-03-08T12:35:57.278Z,96390.34
2023-03-08T12:38:38.665Z,96389.09
2023-03-08T12:41:23.324Z,96372.38
2023-03-08T12:44:07.004Z,96386.16
2023-03-08T12:47:03.468Z,96386.84
2023-03-08T12:49:40.722Z,96383.75
2023-03-08T12:52:36.979Z,96382.84
2023-03-08T12:55:35.785Z,96390.75
2023-03-08T12:58:05.856Z,96388.03
2023-03-08T13:00:39.433Z,96383.22
2023-03-08T13:03:39.464Z,96386.69
2023-03-08T13:06:22.937Z,96374.75
2023-03-08T13:09:04.207Z,96376.66
2023-03-08T13:11:50.397Z,96377.81
2023-03-08T13:14:41.736Z,96378.63
2023-03-08T13:17:27.897Z,96371.63
2023-03-08T13:19:58.268Z,96371.94
2023-03-08T13:22:32.119Z,96356.66
2023-03-08T13:25:17.459Z,96346.13
2023-03-08T13:28:09.272Z,96348.91
2023-03-08T13:31:00.991Z,96348.19
2023-03-08T13:33:36.498Z,96346.25
2023-03-08T13:36:22.342Z,96345.88
2023-03-08T13:39:05.839Z,96332.78
2023-03-08T13:41:39.064Z,96329.63
2023-03-08T13:44:29.424Z,96330.72
2023-03-08T13:47:04.113Z,96335.00
2023-03-08T13:49:38.259Z,96321.50
2023-03-08T13:52:21.909Z,96317.34
2023-03-08T13:55:02.367Z,96305.91
2023-03-08T13:57:36.680Z,96321.91
2023-03-08T14:00:25.735Z,96296.97
2023-03-08T14:02:54.866Z,96291.81
2023-03-08T14:05:32.889Z,96286.63
2023-03-08T14:08:07.591Z,96277.81
2023-03-08T14:10:45.794Z,96263.13
2023-03-08T14:13:36.204Z,96254.28
2023-03-08T14:16:08.119Z,96241.66
2023-03-08T14:18:45.517Z,96243.53
2023-03-08T14:21:21.058Z,96235.56
2023-03-08T14:23:56.895Z,96234.13
2023-03-08T14:26:34.947Z,96236.00
2023-03-08T14:29:22.750Z,96231.13
2023-03-08T14:32:11.889Z,96233.38
2023-03-08T14:34:44.930Z,96229.28
2023-03-08T14:37:12.279Z,96222.72
2023-03-08T14:39:47.213Z,96223.31
2023-03-08T14:42:36.184Z,96227.88
2023-03-08T14:45:19.257Z,96221.22
2023-03-08T14:48:00.479Z,96222.78
2023-03-08T14:50:33.549Z,96207.06
2023-03-08T14:53:03.178Z,96213.03
2023-03-08T14:55:38.764Z,96222.47
2023-03-08T14:58:13.844Z,96232.38
2023-03-08T15:00:57.564Z,96227.13
2023-03-08T15:03:25.366Z,96224.50
2023-03-08T15:05:55.492Z,96238.88
2023-03-08T15:08:24.079Z,96222.59
2023-03-08T15:10:52.900Z,96220.41
2023-03-08T15:13:23.740Z,96215.09
2023-03-08T15:15:51.719Z,96211.75
2023-03-08T15:18:19.222Z,96204.63
2023-03-08T15:20:50.392Z,96211.53
2023-03-08T15:23:38.325Z,96203.06
2023-03-08T15:26:07.658Z,96207.84
2023-03-08T15:28:35.122Z,96195.44
2023-03-08T15:31:02.994Z,96198.97
2023-03-08T15:33:30.291Z,96195.16
2023-03-08T15:35:59.206Z,96176.63
2023-03-08T15:38:26.699Z,96172.66
2023-03-08T15:40:54.419Z,96159.50
2023-03-08T15:43:22.305Z,96168.53
2023-03-08T15:45:49.889Z,96167.75
2023-03-08T15:48:19.365Z,96169.63
2023-03-08T15:50:47.248Z,96183.06
2023-03-08T15:53:23.271Z,96168.94
2023-03-08T15:55:58.301Z,96167.75
2023-03-08T15:58:26.015Z,96184.44
2023-03-08T16:00:57.416Z,96195.53
2023-03-08T16:03:31.030Z,96194.91
2023-03-08T16:06:00.200Z,96175.22
2023-03-08T16:08:29.913Z,96169.31
2023-03-08T16:11:03.894Z,96183.16
2023-03-08T16:13:33.500Z,96178.22
2023-03-08T16:16:05.495Z,96177.81
2023-03-08T16:18:34.699Z,96176.44
2023-03-08T16:21:09.179Z,96177.41
2023-03-08T16:23:38.886Z,96180.44
2023-03-08T16:26:16.969Z,96185.88
2023-03-08T16:28:47.177Z,96178.66
2023-03-08T16:31:16.669Z,96181.09
2023-03-08T16:33:44.430Z,96174.94
2023-03-08T16:36:12.808Z,96182.03
2023-03-08T16:38:41.498Z,96183.41
2023-03-08T16:41:13.261Z,96185.75
2023-03-08T16:43:48.009Z,96184.25
2023-03-08T16:46:22.907Z,96215.56
2023-03-08T16:48:54.577Z,96178.91
2023-03-08T16:51:28.181Z,96190.25
2023-03-08T16:53:55.960Z,96183.97
2023-03-08T16:56:30.315Z,96187.53
2023-03-08T16:59:01.515Z,96187.81
2023-03-08T17:01:30.542Z,96184.25
2023-03-08T17:03:59.004Z,96180.16
2023-03-08T17:06:30.503Z,96177.13
2023-03-08T17:08:59.120Z,96182.31
2023-03-08T17:11:31.187Z,96176.16
2023-03-08T17:14:03.045Z,96175.34
2023-03-08T17:16:32.652Z,96184.63
2023-03-08T17:19:02.178Z,96164.00
2023-03-08T17:21:31.433Z,96162.22
2023-03-08T17:24:00.289Z,96152.91
2023-03-08T17:26:28.228Z,96153.06
2023-03-08T17:28:55.882Z,96154.69
2023-03-08T17:31:25.402Z,96149.50
2023-03-08T17:33:53.230Z,96145.53
2023-03-08T17:36:21.181Z,96146.47
2023-03-08T17:38:48.734Z,96135.84
2023-03-08T17:41:17.183Z,96138.16
2023-03-08T17:43:44.791Z,96127.22
2023-03-08T17:46:21.395Z,96128.19
2023-03-08T17:48:50.767Z,96133.34
2023-03-08T17:51:22.979Z,96130.88
2023-03-08T17:53:51.126Z,96117.50
2023-03-08T17:56:28.672Z,96107.78
2023-03-08T17:59:02.199Z,96113.13
2023-03-08T18:01:32.126Z,96110.38
2023-03-08T18:04:00.564Z,96095.06
2023-03-08T18:06:29.686Z,96097.78
2023-03-08T18:09:04.242Z,96095.47
2023-03-08T18:11:37.537Z,96091.75
2023-03-08T18:14:12.307Z,96087.41
2023-03-08T18:16:41.702Z,96087.41
2023-03-08T18:19:10.653Z,96077.50
2023-03-08T18:21:41.272Z,96077.81
2023-03-08T18:24:12.749Z,96060.03
2023-03-08T18:26:40.445Z,96053.50
2023-03-08T18:29:07.774Z,96050.88
2023-03-08T18:31:37.395Z,96056.75
2023-03-08T18:34:08.253Z,96047.06
2023-03-08T18:36:38.323Z,96046.94
2023-03-08T18:39:12.217Z,96043.13
2023-03-08T18:41:40.197Z,96034.66
2023-03-08T18:44:11.618Z,96024.13
2023-03-08T18:46:39.637Z,96022.59
2023-03-08T18:49:11.991Z,96024.00
2023-03-08T18:51:41.935Z,96011.53
2023-03-08T18:54:17.460Z,96015.91
2023-03-08T18:56:45.193Z,96016.34
2023-03-08T18:59:14.399Z,96014.56
2023-03-08T19:01:42.137Z,96002.97
2023-03-08T19:04:09.530Z,96000.66
2023-03-08T19:06:37.594Z,96001.03
2023-03-08T19:09:15.172Z,95993.53
2023-03-08T19:11:43.147Z,95996.41
2023-03-08T19:14:12.565Z,95989.81
2023-03-08T19:16:40.540Z,95995.44
2023-03-08T19:19:14.660Z,95987.91
2023-03-08T19:21:46.501Z,95989.56
2023-03-08T19:24:16.706Z,95994.47
2023-03-08T19:26:49.037Z,95987.09
2023-03-08T19:29:24.809Z,95978.63
2023-03-08T19:31:59.649Z,95974.81
2023-03-08T19:34:31.523Z,95973.44
2023-03-08T19:37:00.269Z,95966.59
2023-03-08T19:39:31.914Z,95965.22
2023-03-08T19:42:11.092Z,95970.16
2023-03-08T19:44:38.962Z,95968.09
2023-03-08T19:47:06.822Z,95960.56
2023-03-08T19:49:38.829Z,95954.69
2023-03-08T19:52:07.567Z,95950.47
2023-03-08T19:54:35.560Z,95948.13
2023-03-08T19:57:03.710Z,95940.78
2023-03-08T19:59:31.093Z,95933.94
2023-03-08T20:01:58.773Z,95936.91
2023-03-08T20:04:26.091Z,95940.31
2023-03-08T20:06:53.744Z,95934.69
2023-03-08T20:09:22.796Z,95924.31
2023-03-08T20:11:57.440Z,95925.81
2023-03-08T20:14:27.544Z,95945.78
2023-03-08T20:16:56.880Z,95928.31
2023-03-08T20:19:24.359Z,95931.88
2023-03-08T20:21:52.022Z,95928.75
2023-03-08T20:24:19.529Z,95936.22
2023-03-08T20:26:47.355Z,95939.41
2023-03-08T20:29:15.564Z,95941.41
2023-03-08T20:31:45.131Z,95926.94
2023-03-08T20:34:12.471Z,95919.44
2023-03-08T20:36:40.207Z,95916.59
2023-03-08T20:39:07.631Z,95929.19
2023-03-08T20:41:35.362Z,95920.16
2023-03-08T20:44:02.639Z,95920.84
2023-03-08T20:46:33.619Z,95916.72
2023-03-08T20:49:01.885Z,95910.59
2023-03-08T20:51:29.723Z,95908.38
2023-03-08T20:53:57.926Z,95891.72
2023-03-08T20:56:26.600Z,95898.25
2023-03-08T20:58:57.346Z,95897.31
2023-03-08T21:01:30.367Z,95900.75
2023-03-08T21:03:58.414Z,95904.69
2023-03-08T21:06:30.780Z,95894.88
2023-03-08T21:08:59.894Z,95894.53
2023-03-08T21:11:28.524Z,95891.41
2023-03-08T21:13:56.852Z,95889.47
2023-03-08T21:16:27.488Z,95901.63
2023-03-08T21:18:59.560Z,95885.91
2023-03-08T21:21:30.764Z,95891.41
2023-03-08T21:24:01.466Z,95892.50
2023-03-08T21:26:30.284Z,95888.13
2023-03-08T21:29:01.842Z,95879.06
2023-03-08T21:31:32.241Z,95890.78
2023-03-08T21:34:04.409Z,95881.47
2023-03-08T21:36:32.992Z,95880.44
2023-03-08T21:39:00.928Z,95883.72
2023-03-08T21:41:32.645Z,95879.38
2023-03-08T21:44:03.486Z,95883.16
2023-03-08T21:46:31.943Z,95879.63
2023-03-08T21:48:59.483Z,95879.88
2023-03-08T21:51:27.253Z,95879.03
2023-03-08T21:53:54.533Z,95880.16
2023-03-08T21:56:22.045Z,95870.28
2023-03-08T21:58:49.324Z,95878.22
2023-03-08T22:01:27.499Z,95870.38
2023-03-08T22:03:55.563Z,95876.28
2023-03-08T22:06:24.546Z,95883.97
2023-03-08T22:08:52.864Z,95868.78
2023-03-08T22:11:22.873Z,95870.41
2023-03-08T22:13:52.776Z,95879.69
2023-03-08T22:16:21.414Z,95876.03
2023-03-08T22:18:53.080Z,95877.75
2023-03-08T22:21:21.983Z,95864.09
2023-03-08T22:23:51.710Z,95869.72
2023-03-08T22:26:21.065Z,95871.50
2023-03-08T22:28:48.699Z,95864.31
2023-03-08T22:31:20.656Z,95864.00
2023-03-08T22:33:48.624Z,95857.72
2023-03-08T22:36:18.810Z,95850.44
2023-03-08T22:38:46.313Z,95850.69
2023-03-08T22:41:18.657Z,95846.88
2023-03-08T22:43:46.863Z,95843.34
2023-03-08T22:46:24.661Z,95845.16
2023-03-08T22:48:53.267Z,95837.75
2023-03-08T22:51:22.789Z,95842.56
2023-03-08T22:53:50.805Z,95836.28
2023-03-08T22:56:26.063Z,95844.50
2023-03-08T22:58:53.431Z,95839.53
2023-03-08T23:01:24.337Z,95839.53
2023-03-08T23:03:56.945Z,95850.66
2023-03-08T23:06:28.355Z,95848.00
2023-03-08T23:09:01.986Z,95852.31
2023-03-08T23:11:29.889Z,95847.28
2023-03-08T23:13:57.501Z,95857.28
2023-03-08T23:16:35.784Z,95841.94
2023-03-08T23:19:03.465Z,95842.88
2023-03-08T23:21:31.982Z,95845.16
2023-03-08T23:24:00.198Z,95840.41
2023-03-08T23:26:28.756Z,95842.66
2023-03-08T23:28:59.435Z,95845.84
2023-03-08T23:31:30.481Z,95830.53
2023-03-08T23:34:00.815Z,95831.59
2023-03-08T23:36:32.007Z,95830.97
2023-03-08T23:39:04.341Z,95825.25
2023-03-08T23:41:33.149Z,95814.84
2023-03-08T23:44:02.576Z,95811.75
2023-03-08T23:46:30.901Z,95813.69
2023-03-08T23:49:00.584Z,95812.94
2023-03-08T23:51:31.117Z,95817.47
2023-03-08T23:54:01.631Z,95811.69
2023-03-08T23:56:40.810Z,95808.03
2023-03-08T23:59:19.437Z,95822.38
